Scott, Indiana
Current Conditions -  °F | °C
As of 6:35 PM on Tuesday 27 Jan 2015 (Local Time) from KANQ Reporting Station
Clear Clear  
Wind Chill: 21°   Ceiling: Unl
Heat Index: 21°   Visibility: 10mi
Dew Point: 10°   Wind: 0mph
Humidity: 63%   Direction: NA
Pressure: 30.16"   Gusts: NA
Location:  41.6594°N, 85.0055°W
Report Text: KANQ 272335Z AUTO 00000KT 10SM CLR M06/M12 A3016 RMK
Loading
Personal Weather Stations






























Interactive Weather Map New forecast layout! Learn more

10-Day Weather Forecast

Advertisements
Track Severe Weather on mobile